createdAt,value
2023-05-23T00:02:24.045Z,14.93
2023-05-23T00:04:52.385Z,20.95
2023-05-23T00:07:19.033Z,19.45
2023-05-23T00:09:45.686Z,17.88
2023-05-23T00:12:12.402Z,19.45
2023-05-23T00:14:40.165Z,19.52
2023-05-23T00:17:08.089Z,23.60
2023-05-23T00:19:36.440Z,18.20
2023-05-23T00:22:03.380Z,17.88
2023-05-23T00:24:30.059Z,19.45
2023-05-23T00:26:58.889Z,17.83
2023-05-23T00:29:25.800Z,16.23
2023-05-23T00:31:52.471Z,19.80
2023-05-23T00:34:19.466Z,17.80
2023-05-23T00:36:50.393Z,23.13
2023-05-23T00:39:21.278Z,16.42
2023-05-23T00:41:51.475Z,20.25
2023-05-23T00:44:20.174Z,29.02
2023-05-23T00:46:49.719Z,27.20
2023-05-23T00:49:20.012Z,36.03
2023-05-23T00:51:46.664Z,32.50
2023-05-23T00:54:13.491Z,38.55
2023-05-23T00:56:40.203Z,38.63
2023-05-23T00:59:07.224Z,34.17
2023-05-23T01:01:33.940Z,34.60
2023-05-23T01:04:02.927Z,35.38
2023-05-23T01:06:30.585Z,29.30
2023-05-23T01:08:57.291Z,32.53
2023-05-23T01:11:28.222Z,30.90
2023-05-23T01:14:00.979Z,34.85
2023-05-23T01:16:39.294Z,28.27
2023-05-23T01:19:17.723Z,29.77
2023-05-23T01:21:46.339Z,26.60
2023-05-23T01:24:21.622Z,26.88
2023-05-23T01:27:19.024Z,27.58
2023-05-23T01:29:46.989Z,24.48
2023-05-23T01:32:14.422Z,27.13
2023-05-23T01:34:41.285Z,25.10
2023-05-23T01:37:11.308Z,29.25
2023-05-23T01:39:38.227Z,26.60
2023-05-23T01:42:05.004Z,29.98
2023-05-23T01:44:32.235Z,28.80
2023-05-23T01:46:58.899Z,24.77
2023-05-23T01:49:25.560Z,30.60
2023-05-23T01:51:52.575Z,34.38
2023-05-23T01:54:19.857Z,27.15
2023-05-23T01:56:47.005Z,27.85
2023-05-23T01:59:13.653Z,39.75
2023-05-23T02:01:40.847Z,31.85
2023-05-23T02:04:07.578Z,27.17
2023-05-23T02:06:34.298Z,26.98
2023-05-23T02:09:00.972Z,29.67
2023-05-23T02:11:27.594Z,31.85
2023-05-23T02:13:54.271Z,29.75
2023-05-23T02:16:21.644Z,35.10
2023-05-23T02:18:49.214Z,26.95
2023-05-23T02:21:15.949Z,30.45
2023-05-23T02:23:42.648Z,29.63
2023-05-23T02:26:09.290Z,26.35
2023-05-23T02:28:35.933Z,31.70
2023-05-23T02:31:02.766Z,28.73
2023-05-23T02:33:29.473Z,25.02
2023-05-23T02:35:56.128Z,30.98
2023-05-23T02:38:22.775Z,28.92
2023-05-23T02:40:51.726Z,27.40
2023-05-23T02:43:18.518Z,27.15
2023-05-23T02:45:45.168Z,30.35
2023-05-23T02:48:14.754Z,31.40
2023-05-23T02:50:41.556Z,24.02
2023-05-23T02:53:08.226Z,25.40
2023-05-23T02:55:34.878Z,29.67
2023-05-23T02:58:01.530Z,21.65
2023-05-23T03:00:28.214Z,25.73
2023-05-23T03:02:54.971Z,23.15
2023-05-23T03:05:21.810Z,23.80
2023-05-23T03:07:48.530Z,23.13
2023-05-23T03:10:15.434Z,23.77
2023-05-23T03:12:42.533Z,23.88
2023-05-23T03:15:10.039Z,21.02
2023-05-23T03:17:37.204Z,22.92
2023-05-23T03:20:04.988Z,23.60
2023-05-23T03:22:31.797Z,17.55
2023-05-23T03:24:58.652Z,16.55
2023-05-23T03:27:25.429Z,18.35
2023-05-23T03:29:52.249Z,19.73
2023-05-23T03:32:19.141Z,16.15
2023-05-23T03:34:46.281Z,17.70
2023-05-23T03:37:13.086Z,18.45
2023-05-23T03:39:40.032Z,16.23
2023-05-23T03:42:07.105Z,13.98
2023-05-23T03:44:33.925Z,19.17
2023-05-23T03:47:00.823Z,16.90
2023-05-23T03:49:27.634Z,12.55
2023-05-23T03:51:54.481Z,17.20
2023-05-23T03:54:21.296Z,15.43
2023-05-23T03:56:48.138Z,15.38
2023-05-23T03:59:15.231Z,14.45
2023-05-23T04:01:42.040Z,14.02
2023-05-23T04:04:08.948Z,15.90
2023-05-23T04:06:35.798Z,15.40
2023-05-23T04:09:03.474Z,16.77
2023-05-23T04:11:30.342Z,13.35
2023-05-23T04:13:57.316Z,13.50
2023-05-23T04:16:24.576Z,11.40
2023-05-23T04:18:52.022Z,11.32
2023-05-23T04:21:18.937Z,13.50
2023-05-23T04:23:46.156Z,12.05
2023-05-23T04:26:13.076Z,21.05
2023-05-23T04:28:40.057Z,17.55
2023-05-23T04:31:06.810Z,8.90
2023-05-23T04:33:34.235Z,7.53
2023-05-23T04:36:02.521Z,8.93
2023-05-23T04:38:29.230Z,8.98
2023-05-23T04:40:58.111Z,7.80
2023-05-23T04:43:26.555Z,7.40
2023-05-23T04:45:57.736Z,8.30
2023-05-23T04:48:24.832Z,7.85
2023-05-23T04:50:52.614Z,8.05
2023-05-23T04:53:19.303Z,9.65
2023-05-23T04:55:46.300Z,9.90
2023-05-23T04:58:13.120Z,9.32
2023-05-23T05:00:40.039Z,11.70
2023-05-23T05:03:07.014Z,8.38
2023-05-23T05:05:33.699Z,8.02
2023-05-23T05:08:00.388Z,9.43
2023-05-23T05:10:27.057Z,8.77
2023-05-23T05:12:53.740Z,7.88
2023-05-23T05:15:20.435Z,8.70
2023-05-23T05:17:49.607Z,8.20
2023-05-23T05:20:17.381Z,8.70
2023-05-23T05:22:44.564Z,10.05
2023-05-23T05:25:11.274Z,10.18
2023-05-23T05:27:39.049Z,7.05
2023-05-23T05:30:09.250Z,8.68
2023-05-23T05:32:36.018Z,9.68
2023-05-23T05:35:03.283Z,8.75
2023-05-23T05:37:30.072Z,8.77
2023-05-23T05:39:56.885Z,7.55
2023-05-23T05:42:23.531Z,8.45
2023-05-23T05:44:50.286Z,9.60
2023-05-23T05:47:16.931Z,7.55
2023-05-23T05:49:43.588Z,9.63
2023-05-23T05:52:10.288Z,7.28
2023-05-23T05:54:37.564Z,9.10
2023-05-23T05:57:04.446Z,9.13
2023-05-23T05:59:32.521Z,10.00
2023-05-23T06:01:59.425Z,10.40
2023-05-23T06:04:26.188Z,6.72
2023-05-23T06:06:52.901Z,10.68
2023-05-23T06:09:19.864Z,10.30
2023-05-23T06:11:46.876Z,38.97
2023-05-23T06:14:13.572Z,7.78
2023-05-23T06:16:40.878Z,9.13
2023-05-23T06:19:08.433Z,8.32
2023-05-23T06:21:36.232Z,8.63
2023-05-23T06:24:02.966Z,7.07
2023-05-23T06:26:29.674Z,7.90
2023-05-23T06:28:56.377Z,8.05
2023-05-23T06:31:23.085Z,9.43
2023-05-23T06:33:49.870Z,10.05
2023-05-23T06:36:16.614Z,9.05
2023-05-23T06:38:43.261Z,15.10
2023-05-23T06:41:09.948Z,6.60
2023-05-23T06:43:36.933Z,16.67
2023-05-23T06:46:03.977Z,7.05
2023-05-23T06:48:30.775Z,11.38
2023-05-23T06:50:57.482Z,8.82
2023-05-23T06:53:24.149Z,9.07
2023-05-23T06:55:50.839Z,12.00
2023-05-23T06:58:17.523Z,8.85
2023-05-23T07:00:44.341Z,8.80
2023-05-23T07:03:11.350Z,24.77
2023-05-23T07:05:40.898Z,60.47
2023-05-23T07:08:08.248Z,7.18
2023-05-23T07:10:35.310Z,13.20
2023-05-23T07:13:02.154Z,12.68
2023-05-23T07:15:28.808Z,11.05
2023-05-23T07:17:55.871Z,7.63
2023-05-23T07:20:22.636Z,13.52
2023-05-23T07:22:51.654Z,8.65
2023-05-23T07:25:18.371Z,9.18
2023-05-23T07:27:45.213Z,9.02
2023-05-23T07:30:12.130Z,9.07
2023-05-23T07:32:38.832Z,11.70
2023-05-23T07:35:06.554Z,9.13
2023-05-23T07:37:33.236Z,11.30
2023-05-23T07:40:00.869Z,8.93
2023-05-23T07:42:27.514Z,10.63
2023-05-23T07:44:54.176Z,11.98
2023-05-23T07:47:20.839Z,11.88
2023-05-23T07:49:47.574Z,9.32
2023-05-23T07:52:14.206Z,8.98
2023-05-23T07:54:40.870Z,10.88
2023-05-23T07:57:07.501Z,10.90
2023-05-23T07:59:34.186Z,11.13
2023-05-23T08:02:00.850Z,9.43
2023-05-23T08:04:28.015Z,13.15
2023-05-23T08:09:25.305Z,8.60
2023-05-23T08:11:51.980Z,9.20
2023-05-23T08:14:18.662Z,10.32
2023-05-23T08:16:46.428Z,10.30
2023-05-23T08:19:13.236Z,7.10
2023-05-23T08:21:40.103Z,10.85
2023-05-23T08:24:06.843Z,7.13
2023-05-23T08:26:37.492Z,6.63
2023-05-23T08:29:04.136Z,6.22
2023-05-23T08:31:31.292Z,11.25
2023-05-23T08:33:58.779Z,7.82
2023-05-23T08:36:25.588Z,10.00
2023-05-23T08:38:52.498Z,8.25
2023-05-23T08:41:20.082Z,10.00
2023-05-23T08:43:46.889Z,8.95
2023-05-23T08:46:13.963Z,10.30
2023-05-23T08:48:40.639Z,7.88
2023-05-23T08:51:08.083Z,10.02
2023-05-23T08:53:34.858Z,10.25
2023-05-23T08:56:04.193Z,8.52
2023-05-23T08:58:31.886Z,9.93
2023-05-23T09:00:59.813Z,9.15
2023-05-23T09:03:27.226Z,10.27
2023-05-23T09:05:57.703Z,7.82
2023-05-23T09:08:24.847Z,9.57
2023-05-23T09:10:51.637Z,9.52
2023-05-23T09:13:20.378Z,9.55
2023-05-23T09:16:02.688Z,9.25
2023-05-23T09:18:42.398Z,6.60
2023-05-23T09:21:09.720Z,7.10
2023-05-23T09:23:37.129Z,10.20
2023-05-23T09:26:04.762Z,10.05
2023-05-23T09:28:32.707Z,7.00
2023-05-23T09:31:09.303Z,8.18
2023-05-23T09:33:50.020Z,8.95
2023-05-23T09:36:17.290Z,8.25
2023-05-23T09:38:46.398Z,7.18
2023-05-23T09:41:13.334Z,7.40
2023-05-23T09:43:41.022Z,8.35
2023-05-23T09:46:09.462Z,7.63
2023-05-23T09:48:36.181Z,8.80
2023-05-23T09:51:09.912Z,7.15
2023-05-23T09:53:37.294Z,7.20
2023-05-23T09:56:04.274Z,5.07
2023-05-23T09:58:31.647Z,7.03
2023-05-23T10:01:00.970Z,4.45
2023-05-23T10:03:31.727Z,4.07
2023-05-23T10:06:03.960Z,5.28
2023-05-23T10:08:58.977Z,4.45
2023-05-23T10:11:34.883Z,3.03
2023-05-23T10:14:05.916Z,5.28
2023-05-23T10:17:03.364Z,5.90
2023-05-23T10:19:43.583Z,2.97
2023-05-23T10:22:10.809Z,3.67
2023-05-23T10:24:37.499Z,3.97
2023-05-23T10:27:04.474Z,5.07
2023-05-23T10:29:31.444Z,6.95
2023-05-23T10:31:58.113Z,4.55
2023-05-23T10:34:40.445Z,3.28
2023-05-23T10:37:07.790Z,3.78
2023-05-23T10:39:55.118Z,1.60
2023-05-23T10:42:45.869Z,4.10
2023-05-23T10:45:18.678Z,1.42
2023-05-23T10:47:47.170Z,1.55
2023-05-23T10:50:17.271Z,2.78
2023-05-23T10:52:45.015Z,2.17
2023-05-23T10:55:15.356Z,1.25
2023-05-23T10:57:43.951Z,2.78
2023-05-23T11:00:19.785Z,1.75
2023-05-23T11:02:59.833Z,1.80
2023-05-23T11:05:28.317Z,2.45
2023-05-23T11:08:11.196Z,4.60
2023-05-23T11:11:00.499Z,0.80
2023-05-23T11:13:47.611Z,2.20
2023-05-23T11:16:40.444Z,1.55
2023-05-23T11:19:19.637Z,2.35
2023-05-23T11:21:49.255Z,6.63
2023-05-23T11:24:16.542Z,3.92
2023-05-23T11:27:00.455Z,4.50
2023-05-23T11:29:28.785Z,5.35
2023-05-23T11:31:58.771Z,9.27
2023-05-23T11:34:26.116Z,11.00
2023-05-23T11:36:54.511Z,6.32
2023-05-23T11:39:21.878Z,7.28
2023-05-23T11:42:01.695Z,9.27
2023-05-23T11:44:28.511Z,9.82
2023-05-23T11:47:06.229Z,7.57
2023-05-23T11:49:35.248Z,9.65
2023-05-23T11:52:05.235Z,9.07
2023-05-23T11:54:31.910Z,8.40
2023-05-23T11:56:58.587Z,6.10
2023-05-23T11:59:26.326Z,7.15
2023-05-23T12:01:53.316Z,7.85
2023-05-23T12:04:20.162Z,7.68
2023-05-23T12:06:48.341Z,8.30
2023-05-23T12:09:14.973Z,6.85
2023-05-23T12:11:42.126Z,9.20
2023-05-23T12:14:09.867Z,9.90
2023-05-23T12:16:36.954Z,10.00
2023-05-23T12:19:05.687Z,9.10
2023-05-23T12:21:45.912Z,24.92
2023-05-23T12:24:17.555Z,19.83
2023-05-23T12:26:51.855Z,11.88
2023-05-23T12:29:19.647Z,11.57
2023-05-23T12:31:49.615Z,12.48
2023-05-23T12:34:16.323Z,13.98
2023-05-23T12:36:48.970Z,13.25
2023-05-23T12:39:16.292Z,11.77
2023-05-23T12:41:44.195Z,13.68
2023-05-23T12:44:11.446Z,12.27
2023-05-23T12:46:38.108Z,15.25
2023-05-23T12:49:04.911Z,11.77
2023-05-23T12:51:31.931Z,14.00
2023-05-23T12:53:58.932Z,16.20
2023-05-23T12:56:26.615Z,17.25
2023-05-23T12:58:54.279Z,15.43
2023-05-23T13:01:21.121Z,17.13
2023-05-23T13:03:47.920Z,19.35
2023-05-23T13:06:14.663Z,19.45
2023-05-23T13:08:41.696Z,17.15
2023-05-23T13:11:08.908Z,18.73
2023-05-23T13:13:35.598Z,17.08
2023-05-23T13:16:02.283Z,18.65
2023-05-23T13:18:28.932Z,21.50
2023-05-23T13:20:55.592Z,18.13
2023-05-23T13:23:22.450Z,20.10
2023-05-23T13:25:51.346Z,18.13
2023-05-23T13:28:18.140Z,20.80
2023-05-23T13:30:46.985Z,18.77
2023-05-23T13:33:14.341Z,15.75
2023-05-23T13:35:41.196Z,19.27
2023-05-23T13:38:08.280Z,22.50
2023-05-23T13:40:37.928Z,26.67
2023-05-23T13:43:05.044Z,19.83
2023-05-23T13:45:33.793Z,13.02
2023-05-23T13:48:00.689Z,22.25
2023-05-23T13:50:27.436Z,15.98
2023-05-23T13:52:54.157Z,13.88
2023-05-23T13:55:23.737Z,18.85
2023-05-23T13:57:50.413Z,19.10
2023-05-23T14:00:17.410Z,14.27
2023-05-23T14:02:44.173Z,18.50
2023-05-23T14:05:11.017Z,16.52
2023-05-23T14:07:38.324Z,20.67
2023-05-23T14:10:05.887Z,16.75
2023-05-23T14:12:32.563Z,20.45
2023-05-23T14:14:59.210Z,17.48
2023-05-23T14:17:26.040Z,14.75
2023-05-23T14:19:52.737Z,12.85
2023-05-23T14:22:19.444Z,16.90
2023-05-23T14:24:46.146Z,20.20
2023-05-23T14:27:12.826Z,13.80
2023-05-23T14:29:39.526Z,18.38
2023-05-23T14:32:06.624Z,20.35
2023-05-23T14:34:33.640Z,12.90
2023-05-23T14:37:01.079Z,11.45
2023-05-23T14:39:29.046Z,16.25
2023-05-23T14:41:55.891Z,17.42
2023-05-23T14:44:22.669Z,11.55
2023-05-23T14:46:50.134Z,15.45
2023-05-23T14:49:17.800Z,11.73
2023-05-23T14:51:50.369Z,11.57
2023-05-23T14:54:18.663Z,12.27
2023-05-23T14:56:45.515Z,23.70
2023-05-23T14:59:12.434Z,16.73
2023-05-23T15:01:40.652Z,17.63
2023-05-23T15:04:09.322Z,17.67
2023-05-23T15:06:38.175Z,15.80
2023-05-23T15:09:05.320Z,21.08
2023-05-23T15:11:39.178Z,20.77
2023-05-23T15:14:06.281Z,12.95
2023-05-23T15:16:35.334Z,17.15
2023-05-23T15:19:02.304Z,20.52
2023-05-23T15:21:29.114Z,19.27
2023-05-23T15:23:56.424Z,9.15
2023-05-23T15:26:23.838Z,19.83
2023-05-23T15:28:50.574Z,15.07
2023-05-23T15:31:17.248Z,12.93
2023-05-23T15:33:43.993Z,15.57
2023-05-23T15:36:13.025Z,23.63
2023-05-23T15:38:39.716Z,16.40
2023-05-23T15:41:06.578Z,13.10
2023-05-23T15:43:35.366Z,13.88
2023-05-23T15:46:02.234Z,16.38
2023-05-23T15:48:28.950Z,16.50
2023-05-23T15:50:55.615Z,20.67
2023-05-23T15:53:22.339Z,14.18
2023-05-23T15:55:49.023Z,16.23
2023-05-23T15:58:15.695Z,19.10
2023-05-23T16:00:42.516Z,20.05
2023-05-23T16:03:09.454Z,11.70
2023-05-23T16:05:36.293Z,17.75
2023-05-23T16:08:02.949Z,18.40
2023-05-23T16:10:29.600Z,21.50
2023-05-23T16:12:56.253Z,19.58
2023-05-23T16:15:22.897Z,18.48
2023-05-23T16:17:49.586Z,13.88
2023-05-23T16:20:16.406Z,16.60
2023-05-23T16:22:43.144Z,21.48
2023-05-23T16:25:10.706Z,26.40
2023-05-23T16:27:37.593Z,14.75
2023-05-23T16:30:04.677Z,23.92
2023-05-23T16:32:31.381Z,19.90
2023-05-23T16:34:58.071Z,23.65
2023-05-23T16:37:24.755Z,15.93
2023-05-23T16:39:51.638Z,20.33
2023-05-23T16:42:18.320Z,22.00
2023-05-23T16:44:45.491Z,20.95
2023-05-23T16:47:12.232Z,18.90
2023-05-23T16:49:38.920Z,20.40
2023-05-23T16:52:05.806Z,19.33
2023-05-23T16:54:32.471Z,19.05
2023-05-23T16:57:01.791Z,22.75
2023-05-23T16:59:29.891Z,16.80
2023-05-23T17:01:56.874Z,16.35
2023-05-23T17:04:23.775Z,17.73
2023-05-23T17:06:50.558Z,14.93
2023-05-23T17:09:18.126Z,22.52
2023-05-23T17:11:45.015Z,15.82
2023-05-23T17:14:11.870Z,14.13
2023-05-23T17:16:38.724Z,17.52
2023-05-23T17:19:05.654Z,18.48
2023-05-23T17:21:33.184Z,15.73
2023-05-23T17:23:59.892Z,11.60
2023-05-23T17:26:27.086Z,16.13
2023-05-23T17:28:53.773Z,18.17
2023-05-23T17:31:20.663Z,19.27
2023-05-23T17:33:47.403Z,15.13
2023-05-23T17:36:14.173Z,15.90
2023-05-23T17:38:41.572Z,20.08
2023-05-23T17:41:08.300Z,15.57
2023-05-23T17:43:34.974Z,17.27
2023-05-23T17:46:01.628Z,27.10
2023-05-23T17:48:45.899Z,17.10
2023-05-23T17:51:14.216Z,23.00
2023-05-23T17:53:41.650Z,15.27
2023-05-23T17:56:09.265Z,18.00
2023-05-23T17:58:37.699Z,19.08
2023-05-23T18:01:05.059Z,12.48
2023-05-23T18:03:32.163Z,17.92
2023-05-23T18:05:58.892Z,16.58
2023-05-23T18:08:25.772Z,14.23
2023-05-23T18:10:52.535Z,18.10
2023-05-23T18:13:19.197Z,23.25
2023-05-23T18:15:45.983Z,17.58
2023-05-23T18:18:12.857Z,13.15
2023-05-23T18:20:39.866Z,12.52
2023-05-23T18:23:07.427Z,21.65
2023-05-23T18:25:34.286Z,15.13
2023-05-23T18:28:01.811Z,15.88
2023-05-23T18:30:28.569Z,18.92
2023-05-23T18:32:56.065Z,17.85
2023-05-23T18:35:22.876Z,20.42
2023-05-23T18:37:49.555Z,17.75
2023-05-23T18:40:16.729Z,21.02
2023-05-23T18:42:43.636Z,19.23
2023-05-23T18:45:10.720Z,14.02
2023-05-23T18:47:37.741Z,16.30
2023-05-23T18:50:04.927Z,18.10
2023-05-23T18:52:33.796Z,20.60
2023-05-23T18:55:00.495Z,14.52
2023-05-23T18:57:27.292Z,15.35
2023-05-23T18:59:53.944Z,16.83
2023-05-23T19:02:20.871Z,21.38
2023-05-23T19:04:47.667Z,24.48
2023-05-23T19:07:14.383Z,16.05
2023-05-23T19:09:41.067Z,16.27
2023-05-23T19:12:07.795Z,18.63
2023-05-23T19:14:34.711Z,17.95
2023-05-23T19:17:02.171Z,11.85
2023-05-23T19:19:31.503Z,12.73
2023-05-23T19:21:58.601Z,19.60
2023-05-23T19:24:25.258Z,21.50
2023-05-23T19:26:52.052Z,13.82
2023-05-23T19:29:18.719Z,17.52
2023-05-23T19:31:45.420Z,16.15
2023-05-23T19:34:12.757Z,18.73
2023-05-23T19:36:40.374Z,19.75
2023-05-23T19:39:07.302Z,18.42
2023-05-23T19:41:33.935Z,18.10
2023-05-23T19:44:00.590Z,21.35
2023-05-23T19:46:28.638Z,16.58
2023-05-23T19:48:57.649Z,17.67
2023-05-23T19:51:24.829Z,20.05
2023-05-23T19:53:52.401Z,11.15
2023-05-23T19:56:19.458Z,16.08
2023-05-23T19:58:46.124Z,20.35
2023-05-23T20:01:12.809Z,22.83
2023-05-23T20:03:39.733Z,15.80
2023-05-23T20:06:06.781Z,16.80
2023-05-23T20:08:35.535Z,22.05
2023-05-23T20:11:02.219Z,14.60
2023-05-23T20:13:29.583Z,9.70
2023-05-23T20:15:56.434Z,14.65
2023-05-23T20:18:23.089Z,19.70
2023-05-23T20:20:49.747Z,15.85
2023-05-23T20:23:16.400Z,19.05
2023-05-23T20:25:43.222Z,13.73
2023-05-23T20:28:10.006Z,15.80
2023-05-23T20:30:36.814Z,18.20
2023-05-23T20:33:03.787Z,19.65
2023-05-23T20:35:31.014Z,15.88
2023-05-23T20:37:58.493Z,17.75
2023-05-23T20:40:25.743Z,19.67
2023-05-23T20:42:53.443Z,17.77
2023-05-23T20:45:20.179Z,18.75
2023-05-23T20:47:47.254Z,15.57
2023-05-23T20:50:14.769Z,21.42
2023-05-23T20:52:43.024Z,16.35
2023-05-23T20:55:10.776Z,14.38
2023-05-23T20:57:37.680Z,21.02
2023-05-23T21:00:10.842Z,19.00
2023-05-23T21:02:38.129Z,15.93
2023-05-23T21:05:08.639Z,14.65
2023-05-23T21:07:35.425Z,18.50
2023-05-23T21:10:02.530Z,19.67
2023-05-23T21:12:29.210Z,20.55
2023-05-23T21:14:58.579Z,19.98
2023-05-23T21:17:25.558Z,12.55
2023-05-23T21:19:52.266Z,22.85
2023-05-23T21:22:18.926Z,22.77
2023-05-23T21:24:45.870Z,13.75
2023-05-23T21:27:12.686Z,25.13
2023-05-23T21:29:39.323Z,18.52
2023-05-23T21:32:06.021Z,19.95
2023-05-23T21:34:32.872Z,23.52
2023-05-23T21:36:59.533Z,25.85
2023-05-23T21:39:28.803Z,16.52
2023-05-23T21:41:59.860Z,18.88
2023-05-23T21:44:26.520Z,13.45
2023-05-23T21:46:53.208Z,14.18
2023-05-23T21:49:19.934Z,23.40
2023-05-23T21:51:46.589Z,19.05
2023-05-23T21:54:13.297Z,13.68
2023-05-23T21:56:39.923Z,20.73
2023-05-23T21:59:06.577Z,19.33
2023-05-23T22:01:33.277Z,25.65
2023-05-23T22:04:00.447Z,17.95
2023-05-23T22:06:27.203Z,20.08
2023-05-23T22:08:54.256Z,12.77
2023-05-23T22:11:21.633Z,15.65
2023-05-23T22:13:48.357Z,17.55
2023-05-23T22:16:15.137Z,21.52
2023-05-23T22:18:51.723Z,17.05
2023-05-23T22:21:18.943Z,18.73
2023-05-23T22:23:45.789Z,22.55
2023-05-23T22:26:12.942Z,17.13
2023-05-23T22:28:39.732Z,21.38
2023-05-23T22:31:06.603Z,10.75
2023-05-23T22:33:33.370Z,19.63
2023-05-23T22:36:00.093Z,29.15
2023-05-23T22:38:26.757Z,18.95
2023-05-23T22:40:53.423Z,15.55
2023-05-23T22:43:21.784Z,18.08
2023-05-23T22:45:50.049Z,18.90
2023-05-23T22:48:19.238Z,18.73
2023-05-23T22:50:46.698Z,13.73
2023-05-23T22:53:16.725Z,22.23
2023-05-23T22:55:43.438Z,18.92
2023-05-23T22:58:10.426Z,19.67
2023-05-23T23:00:37.131Z,21.77
2023-05-23T23:03:04.190Z,15.95
2023-05-23T23:05:31.092Z,21.70
2023-05-23T23:07:57.745Z,25.45
2023-05-23T23:10:24.437Z,18.27
2023-05-23T23:12:51.205Z,18.20
2023-05-23T23:15:17.889Z,18.45
2023-05-23T23:17:44.942Z,12.70
2023-05-23T23:20:12.889Z,17.98
2023-05-23T23:22:39.662Z,15.07
2023-05-23T23:25:10.517Z,22.70
2023-05-23T23:27:37.887Z,19.23
2023-05-23T23:30:06.504Z,21.80
2023-05-23T23:32:34.262Z,19.60
2023-05-23T23:35:01.171Z,15.40
2023-05-23T23:37:27.831Z,16.80
2023-05-23T23:39:54.462Z,17.00
2023-05-23T23:42:21.379Z,22.17
2023-05-23T23:44:48.291Z,17.55
2023-05-23T23:47:14.986Z,19.77
2023-05-23T23:49:42.161Z,17.02
2023-05-23T23:52:09.025Z,14.00
2023-05-23T23:54:35.796Z,24.05
2023-05-23T23:57:02.574Z,16.95
2023-05-23T23:59:29.368Z,13.27
